createdAt,value
2022-07-29T00:00:07.997Z,12.40
2022-07-29T00:02:55.546Z,12.40
2022-07-29T00:05:43.450Z,12.50
2022-07-29T00:08:31.003Z,12.40
2022-07-29T00:11:19.947Z,12.40
2022-07-29T00:14:07.752Z,12.50
2022-07-29T00:16:57.244Z,12.50
2022-07-29T00:19:45.711Z,12.50
2022-07-29T00:22:33.097Z,12.60
2022-07-29T00:25:20.877Z,12.60
2022-07-29T00:28:10.254Z,12.50
2022-07-29T00:30:57.801Z,12.60
2022-07-29T00:33:45.196Z,12.60
2022-07-29T00:36:31.661Z,12.60
2022-07-29T00:39:19.321Z,12.60
2022-07-29T00:42:07.272Z,12.60
2022-07-29T00:44:56.369Z,12.60
2022-07-29T00:47:44.176Z,12.50
2022-07-29T00:50:31.543Z,12.50
2022-07-29T00:53:19.292Z,12.60
2022-07-29T00:56:06.528Z,12.60
2022-07-29T00:58:54.476Z,12.60
2022-07-29T01:01:43.589Z,12.60
2022-07-29T01:04:31.917Z,12.50
2022-07-29T01:07:19.580Z,12.50
2022-07-29T01:10:08.666Z,12.40
2022-07-29T01:12:57.048Z,12.40
2022-07-29T01:15:48.938Z,12.40
2022-07-29T01:18:41.643Z,12.40
2022-07-29T01:21:50.121Z,12.40
2022-07-29T01:24:52.079Z,12.40
2022-07-29T01:27:47.152Z,12.40
2022-07-29T01:30:37.792Z,12.40
2022-07-29T01:33:43.760Z,12.30
2022-07-29T01:36:33.333Z,12.30
2022-07-29T01:39:24.587Z,12.20
2022-07-29T01:42:15.171Z,12.20
2022-07-29T01:45:05.210Z,12.10
2022-07-29T01:47:56.671Z,12.10
2022-07-29T01:50:48.674Z,12.10
2022-07-29T01:53:39.949Z,12.10
2022-07-29T01:56:30.782Z,12.10
2022-07-29T01:59:19.052Z,12.10
2022-07-29T02:02:07.041Z,12.10
2022-07-29T02:04:56.813Z,12.10
2022-07-29T02:07:45.211Z,12.00
2022-07-29T02:10:35.080Z,12.00
2022-07-29T02:13:23.443Z,12.00
2022-07-29T02:16:11.779Z,12.00
2022-07-29T02:19:00.302Z,12.00
2022-07-29T02:21:49.972Z,12.00
2022-07-29T02:24:37.819Z,12.00
2022-07-29T02:27:26.041Z,12.00
2022-07-29T02:30:14.292Z,12.00
2022-07-29T02:33:01.985Z,12.00
2022-07-29T02:35:50.020Z,12.00
2022-07-29T02:38:58.625Z,11.90
2022-07-29T02:41:47.813Z,11.90
2022-07-29T02:44:36.255Z,11.90
2022-07-29T02:47:26.382Z,11.90
2022-07-29T02:50:15.007Z,12.00
2022-07-29T02:53:04.776Z,11.90
2022-07-29T02:55:56.489Z,11.90
2022-07-29T02:58:47.272Z,11.90
2022-07-29T03:01:36.114Z,11.90
2022-07-29T03:04:25.270Z,11.90
2022-07-29T03:07:15.301Z,11.80
2022-07-29T03:10:03.561Z,11.80
2022-07-29T03:12:52.827Z,11.70
2022-07-29T03:15:40.626Z,11.70
2022-07-29T03:18:28.646Z,11.60
2022-07-29T03:21:16.699Z,11.60
2022-07-29T03:24:10.094Z,11.60
2022-07-29T03:26:59.092Z,11.60
2022-07-29T03:29:49.997Z,11.50
2022-07-29T03:32:38.541Z,11.50
2022-07-29T03:35:27.535Z,11.50
2022-07-29T03:38:15.287Z,11.50
2022-07-29T03:41:04.404Z,11.40
2022-07-29T03:43:52.365Z,11.40
2022-07-29T03:46:42.151Z,11.40
2022-07-29T03:49:29.982Z,11.40
2022-07-29T03:52:17.553Z,11.40
2022-07-29T03:55:05.396Z,11.40
2022-07-29T03:57:54.215Z,11.40
2022-07-29T04:00:41.835Z,11.50
2022-07-29T04:03:30.698Z,11.50
2022-07-29T04:06:18.204Z,11.60
2022-07-29T04:09:05.458Z,11.70
2022-07-29T04:12:03.241Z,11.80
2022-07-29T04:14:51.490Z,11.80
2022-07-29T04:17:39.460Z,11.90
2022-07-29T04:20:28.921Z,12.00
2022-07-29T04:23:16.866Z,12.10
2022-07-29T04:26:05.254Z,12.20
2022-07-29T04:28:52.719Z,12.30
2022-07-29T04:31:40.688Z,12.40
2022-07-29T04:34:28.482Z,12.60
2022-07-29T04:37:17.885Z,12.80
2022-07-29T04:40:05.700Z,13.10
2022-07-29T04:42:53.293Z,13.40
2022-07-29T04:45:41.831Z,13.60
2022-07-29T04:48:29.626Z,13.90
2022-07-29T04:51:17.455Z,14.20
2022-07-29T04:54:07.203Z,14.50
2022-07-29T04:56:54.761Z,14.70
2022-07-29T04:59:42.568Z,15.00
2022-07-29T05:02:30.011Z,15.30
2022-07-29T05:05:17.853Z,15.60
2022-07-29T05:08:05.693Z,15.80
2022-07-29T05:10:54.675Z,16.10
2022-07-29T05:13:45.325Z,16.30
2022-07-29T05:16:34.549Z,16.60
2022-07-29T05:19:22.202Z,16.70
2022-07-29T05:22:09.932Z,16.90
2022-07-29T05:24:57.657Z,17.00
2022-07-29T05:27:46.794Z,17.10
2022-07-29T05:30:38.682Z,17.20
2022-07-29T05:33:34.903Z,17.30
2022-07-29T05:36:24.392Z,17.40
2022-07-29T05:39:11.854Z,17.50
2022-07-29T05:41:59.747Z,17.60
2022-07-29T05:44:49.710Z,17.60
2022-07-29T05:47:37.103Z,17.70
2022-07-29T05:50:26.028Z,17.70
2022-07-29T05:53:19.723Z,17.70
2022-07-29T05:56:08.381Z,17.80
2022-07-29T05:58:55.992Z,17.90
2022-07-29T06:01:45.157Z,18.00
2022-07-29T06:04:32.622Z,18.10
2022-07-29T06:07:20.266Z,18.30
2022-07-29T06:10:08.100Z,18.40
2022-07-29T06:12:56.019Z,18.70
2022-07-29T06:15:43.761Z,18.80
2022-07-29T06:18:32.659Z,19.00
2022-07-29T06:21:20.265Z,19.10
2022-07-29T06:24:08.524Z,19.30
2022-07-29T06:26:57.081Z,19.50
2022-07-29T06:29:44.534Z,19.70
2022-07-29T06:32:32.284Z,19.90
2022-07-29T06:35:41.386Z,20.10
2022-07-29T06:38:30.917Z,20.30
2022-07-29T06:41:21.250Z,20.40
2022-07-29T06:44:08.693Z,20.60
2022-07-29T06:46:56.468Z,20.80
2022-07-29T06:49:43.746Z,21.00
2022-07-29T06:52:32.812Z,21.30
2022-07-29T06:55:25.198Z,21.60
2022-07-29T06:58:13.048Z,21.80
2022-07-29T07:01:02.748Z,21.90
2022-07-29T07:03:50.515Z,21.80
2022-07-29T07:06:38.243Z,21.90
2022-07-29T07:09:31.112Z,22.00
2022-07-29T07:12:28.476Z,22.10
2022-07-29T07:15:15.988Z,22.20
2022-07-29T07:18:04.188Z,22.30
2022-07-29T07:20:51.704Z,22.40
2022-07-29T07:23:39.498Z,22.50
2022-07-29T07:26:28.537Z,22.50
2022-07-29T07:29:16.174Z,22.60
2022-07-29T07:32:04.428Z,22.80
2022-07-29T07:34:52.232Z,22.90
2022-07-29T07:37:41.501Z,23.10
2022-07-29T07:40:28.933Z,23.20
2022-07-29T07:43:17.861Z,23.40
2022-07-29T07:46:05.702Z,23.60
2022-07-29T07:48:54.060Z,23.80
2022-07-29T07:51:41.652Z,24.00
2022-07-29T07:54:29.037Z,24.20
2022-07-29T07:57:16.833Z,24.20
2022-07-29T08:00:06.555Z,24.10
2022-07-29T08:03:00.519Z,23.90
2022-07-29T08:05:48.629Z,23.70
2022-07-29T08:08:36.884Z,23.60
2022-07-29T08:11:24.760Z,23.70
2022-07-29T08:14:12.536Z,23.90
2022-07-29T08:17:02.904Z,24.10
2022-07-29T08:19:50.933Z,24.20
2022-07-29T08:22:38.645Z,24.50
2022-07-29T08:25:26.097Z,24.60
2022-07-29T08:28:13.791Z,24.80
2022-07-29T08:31:01.645Z,25.10
2022-07-29T08:33:50.652Z,25.50
2022-07-29T08:36:38.173Z,25.70
2022-07-29T08:39:26.075Z,25.90
2022-07-29T08:42:13.384Z,26.20
2022-07-29T08:45:00.977Z,26.10
2022-07-29T08:47:49.013Z,26.10
2022-07-29T08:50:39.101Z,26.00
2022-07-29T08:53:28.307Z,26.10
2022-07-29T08:56:17.846Z,26.60
2022-07-29T08:59:06.013Z,26.90
2022-07-29T09:01:55.731Z,27.00
2022-07-29T09:04:46.316Z,27.00
2022-07-29T09:07:35.335Z,26.80
2022-07-29T09:10:23.085Z,26.90
2022-07-29T09:13:10.669Z,26.70
2022-07-29T09:15:58.631Z,26.50
2022-07-29T09:18:47.398Z,26.60
2022-07-29T09:22:03.363Z,26.50
2022-07-29T09:24:52.950Z,26.40
2022-07-29T09:27:40.597Z,26.40
2022-07-29T09:30:31.608Z,26.20
2022-07-29T09:33:19.447Z,26.30
2022-07-29T09:36:08.144Z,26.30
2022-07-29T09:38:59.527Z,26.20
2022-07-29T09:41:49.453Z,26.40
2022-07-29T09:44:46.814Z,26.60
2022-07-29T09:47:42.727Z,26.70
2022-07-29T09:50:40.993Z,26.80
2022-07-29T09:53:32.564Z,26.80
2022-07-29T09:56:19.936Z,26.70
2022-07-29T09:59:09.191Z,26.70
2022-07-29T10:01:56.837Z,26.60
2022-07-29T10:04:44.888Z,26.50
2022-07-29T10:07:48.367Z,26.40
2022-07-29T10:10:40.600Z,26.40
2022-07-29T10:13:28.624Z,26.50
2022-07-29T10:16:17.834Z,26.60
2022-07-29T10:19:05.516Z,26.70
2022-07-29T10:21:57.914Z,26.80
2022-07-29T10:24:46.025Z,26.90
2022-07-29T10:27:33.739Z,27.00
2022-07-29T10:30:21.706Z,27.10
2022-07-29T10:33:35.400Z,27.10
2022-07-29T10:36:34.275Z,27.20
2022-07-29T10:39:26.784Z,27.00
2022-07-29T10:42:34.285Z,26.90
2022-07-29T10:45:22.340Z,26.80
2022-07-29T10:48:11.223Z,26.90
2022-07-29T10:51:05.434Z,26.90
2022-07-29T10:53:55.053Z,27.00
2022-07-29T10:56:43.055Z,27.10
2022-07-29T10:59:36.048Z,27.30
2022-07-29T11:02:43.959Z,27.80
2022-07-29T11:05:53.065Z,28.10
2022-07-29T11:08:44.302Z,28.10
2022-07-29T11:11:36.778Z,28.20
2022-07-29T11:14:39.954Z,28.30
2022-07-29T11:17:46.871Z,28.50
2022-07-29T11:20:37.943Z,28.60
2022-07-29T11:23:27.614Z,28.60
2022-07-29T11:26:24.880Z,28.50
2022-07-29T11:29:19.051Z,28.50
2022-07-29T11:32:15.707Z,28.30
2022-07-29T11:35:17.221Z,28.30
2022-07-29T11:38:28.086Z,28.50
2022-07-29T11:41:27.434Z,28.80
2022-07-29T11:44:17.920Z,28.80
2022-07-29T11:47:05.904Z,28.90
2022-07-29T11:49:55.306Z,28.90
2022-07-29T11:52:49.618Z,28.70
2022-07-29T11:55:38.871Z,28.70
2022-07-29T11:58:40.586Z,29.00
2022-07-29T12:01:28.503Z,29.00
2022-07-29T12:04:15.909Z,28.90
2022-07-29T12:09:56.900Z,29.00
2022-07-29T12:12:44.777Z,28.90
2022-07-29T12:15:45.816Z,29.00
2022-07-29T12:18:33.939Z,29.00
2022-07-29T12:21:21.206Z,29.10
2022-07-29T12:24:13.617Z,28.90
2022-07-29T12:27:02.398Z,29.00
2022-07-29T12:29:57.439Z,29.10
2022-07-29T12:32:48.871Z,29.40
2022-07-29T12:35:36.799Z,29.80
2022-07-29T12:38:24.669Z,29.90
2022-07-29T12:41:12.502Z,30.30
2022-07-29T12:44:01.716Z,30.70
2022-07-29T12:47:03.311Z,30.90
2022-07-29T12:49:53.370Z,30.80
2022-07-29T12:52:40.670Z,30.60
2022-07-29T12:55:40.682Z,30.70
2022-07-29T12:58:29.470Z,30.90
2022-07-29T13:01:18.353Z,30.80
2022-07-29T13:04:05.695Z,30.70
2022-07-29T13:07:00.500Z,31.00
2022-07-29T13:09:49.793Z,31.30
2022-07-29T13:12:37.271Z,31.70
2022-07-29T13:15:24.928Z,32.20
2022-07-29T13:18:31.212Z,32.20
2022-07-29T13:21:18.886Z,31.90
2022-07-29T13:24:09.126Z,32.20
2022-07-29T13:26:56.855Z,32.50
2022-07-29T13:29:44.301Z,32.70
2022-07-29T13:32:34.780Z,32.00
2022-07-29T13:35:22.227Z,31.40
2022-07-29T13:38:09.977Z,30.60
2022-07-29T13:40:58.927Z,30.20
2022-07-29T13:43:46.674Z,29.70
2022-07-29T13:46:37.718Z,29.50
2022-07-29T13:49:28.318Z,29.40
2022-07-29T13:52:15.715Z,29.10
2022-07-29T13:55:03.488Z,28.90
2022-07-29T13:57:52.475Z,28.60
2022-07-29T14:00:39.843Z,28.50
2022-07-29T14:03:27.248Z,28.60
2022-07-29T14:06:15.817Z,28.70
2022-07-29T14:09:07.249Z,28.70
2022-07-29T14:11:55.217Z,29.00
2022-07-29T14:14:44.609Z,28.90
2022-07-29T14:17:35.024Z,29.00
2022-07-29T14:20:22.371Z,28.70
2022-07-29T14:23:10.028Z,28.60
2022-07-29T14:25:57.347Z,28.40
2022-07-29T14:28:45.634Z,28.40
2022-07-29T14:31:35.762Z,28.20
2022-07-29T14:34:23.253Z,28.10
2022-07-29T14:37:15.777Z,28.00
2022-07-29T14:40:04.987Z,28.10
2022-07-29T14:42:52.392Z,28.30
2022-07-29T14:45:40.132Z,28.50
2022-07-29T14:48:28.873Z,28.60
2022-07-29T14:51:16.676Z,28.70
2022-07-29T14:54:04.078Z,28.80
2022-07-29T14:56:51.968Z,28.80
2022-07-29T14:59:39.222Z,28.50
2022-07-29T15:02:45.722Z,28.50
2022-07-29T15:05:36.040Z,28.40
2022-07-29T15:08:24.082Z,28.20
2022-07-29T15:11:11.386Z,28.10
2022-07-29T15:13:59.005Z,28.10
2022-07-29T15:16:47.996Z,28.00
2022-07-29T15:19:36.123Z,27.80
2022-07-29T15:22:24.793Z,27.60
2022-07-29T15:25:13.344Z,27.40
2022-07-29T15:28:03.921Z,27.30
2022-07-29T15:30:51.735Z,27.40
2022-07-29T15:33:39.449Z,27.60
2022-07-29T15:36:50.642Z,27.60
2022-07-29T15:39:36.439Z,27.50
2022-07-29T15:42:24.496Z,27.60
2022-07-29T15:45:12.847Z,27.40
2022-07-29T15:48:00.511Z,27.50
2022-07-29T15:50:48.285Z,27.70
2022-07-29T15:53:35.767Z,27.90
2022-07-29T15:56:24.962Z,28.10
2022-07-29T15:59:22.416Z,28.30
2022-07-29T16:02:11.245Z,28.20
2022-07-29T16:04:58.782Z,28.00
2022-07-29T16:07:46.373Z,27.80
2022-07-29T16:10:34.072Z,27.50
2022-07-29T16:13:23.068Z,27.30
2022-07-29T16:16:11.947Z,27.10
2022-07-29T16:18:59.645Z,26.90
2022-07-29T16:21:47.155Z,26.80
2022-07-29T16:24:34.802Z,26.80
2022-07-29T16:27:24.889Z,27.00
2022-07-29T16:30:13.881Z,27.20
2022-07-29T16:33:03.245Z,27.40
2022-07-29T16:35:53.978Z,27.40
2022-07-29T16:38:47.329Z,27.40
2022-07-29T16:41:36.460Z,27.40
2022-07-29T16:44:25.095Z,27.40
2022-07-29T16:47:14.035Z,27.60
2022-07-29T16:50:01.584Z,27.90
2022-07-29T16:52:49.165Z,28.00
2022-07-29T16:55:36.757Z,28.20
2022-07-29T16:58:24.138Z,28.40
2022-07-29T17:01:11.804Z,28.50
2022-07-29T17:04:07.204Z,28.50
2022-07-29T17:06:55.174Z,28.60
2022-07-29T17:09:43.406Z,28.60
2022-07-29T17:12:31.186Z,28.50
2022-07-29T17:15:19.579Z,28.40
2022-07-29T17:18:12.443Z,28.10
2022-07-29T17:21:02.131Z,28.00
2022-07-29T17:23:49.574Z,27.90
2022-07-29T17:26:36.883Z,27.90
2022-07-29T17:29:24.616Z,27.70
2022-07-29T17:32:12.156Z,27.20
2022-07-29T17:34:59.478Z,27.00
2022-07-29T17:37:48.546Z,26.80
2022-07-29T17:40:36.095Z,26.50
2022-07-29T17:43:23.631Z,26.30
2022-07-29T17:46:12.663Z,26.00
2022-07-29T17:49:00.454Z,25.80
2022-07-29T17:51:48.077Z,25.50
2022-07-29T17:54:36.950Z,25.30
2022-07-29T17:57:24.688Z,25.10
2022-07-29T18:00:13.638Z,24.90
2022-07-29T18:03:00.901Z,24.80
2022-07-29T18:05:49.507Z,24.60
2022-07-29T18:08:37.403Z,24.50
2022-07-29T18:11:26.388Z,24.30
2022-07-29T18:14:14.550Z,24.20
2022-07-29T18:17:02.321Z,24.10
2022-07-29T18:19:49.552Z,24.10
2022-07-29T18:22:37.186Z,24.00
2022-07-29T18:25:25.804Z,23.90
2022-07-29T18:28:14.735Z,23.90
2022-07-29T18:31:02.842Z,23.90
2022-07-29T18:33:50.457Z,23.80
2022-07-29T18:36:38.269Z,23.60
2022-07-29T18:39:25.675Z,23.50
2022-07-29T18:42:13.143Z,23.50
2022-07-29T18:45:02.466Z,23.40
2022-07-29T18:47:51.874Z,23.30
2022-07-29T18:50:40.751Z,23.20
2022-07-29T18:53:29.031Z,23.10
2022-07-29T18:56:16.241Z,23.00
2022-07-29T18:59:04.354Z,22.90
2022-07-29T19:01:53.481Z,22.90
2022-07-29T19:04:41.329Z,22.80
2022-07-29T19:07:29.873Z,22.60
2022-07-29T19:10:17.527Z,22.50
2022-07-29T19:13:06.185Z,22.40
2022-07-29T19:15:53.949Z,22.30
2022-07-29T19:18:44.726Z,22.20
2022-07-29T19:21:32.098Z,22.00
2022-07-29T19:24:19.337Z,21.90
2022-07-29T19:27:06.907Z,21.80
2022-07-29T19:29:56.707Z,21.70
2022-07-29T19:32:46.861Z,21.60
2022-07-29T19:35:35.984Z,21.40
2022-07-29T19:38:23.563Z,21.20
2022-07-29T19:41:11.225Z,21.00
2022-07-29T19:43:58.889Z,20.90
2022-07-29T19:46:46.502Z,20.70
2022-07-29T19:49:37.218Z,20.50
2022-07-29T19:52:26.480Z,20.30
2022-07-29T19:55:14.308Z,20.10
2022-07-29T19:58:03.343Z,19.90
2022-07-29T20:00:52.703Z,19.80
2022-07-29T20:03:40.990Z,19.70
2022-07-29T20:06:28.460Z,19.50
2022-07-29T20:09:20.744Z,19.30
2022-07-29T20:12:08.878Z,19.20
2022-07-29T20:14:56.485Z,19.10
2022-07-29T20:17:44.084Z,19.00
2022-07-29T20:20:31.796Z,18.90
2022-07-29T20:23:22.272Z,18.80
2022-07-29T20:26:11.303Z,18.70
2022-07-29T20:28:58.876Z,18.70
2022-07-29T20:31:52.900Z,18.60
2022-07-29T20:34:43.984Z,18.50
2022-07-29T20:37:32.725Z,18.50
2022-07-29T20:40:39.545Z,18.60
2022-07-29T20:43:28.345Z,18.60
2022-07-29T20:46:15.957Z,18.60
2022-07-29T20:49:03.405Z,18.70
2022-07-29T20:51:50.798Z,18.70
2022-07-29T20:54:38.369Z,18.80
2022-07-29T20:57:39.079Z,18.70
2022-07-29T21:00:29.700Z,18.80
2022-07-29T21:03:18.363Z,18.70
2022-07-29T21:06:06.264Z,18.70
2022-07-29T21:08:55.834Z,18.70
2022-07-29T21:11:45.126Z,18.70
2022-07-29T21:17:27.519Z,18.60
2022-07-29T21:20:15.644Z,18.60
2022-07-29T21:23:03.115Z,18.50
2022-07-29T21:25:50.510Z,18.50
2022-07-29T21:28:40.125Z,18.40
2022-07-29T21:31:28.361Z,18.20
2022-07-29T21:34:17.354Z,18.10
2022-07-29T21:37:05.319Z,18.00
2022-07-29T21:39:54.786Z,17.80
2022-07-29T21:42:42.587Z,17.70
2022-07-29T21:45:33.091Z,17.70
2022-07-29T21:48:21.314Z,17.60
2022-07-29T21:51:09.932Z,17.50
2022-07-29T21:53:57.363Z,17.40
2022-07-29T21:56:45.182Z,17.40
2022-07-29T21:59:38.864Z,17.30
2022-07-29T22:02:26.245Z,17.20
2022-07-29T22:05:14.005Z,17.20
2022-07-29T22:08:02.644Z,17.10
2022-07-29T22:10:49.938Z,17.10
2022-07-29T22:13:37.261Z,17.10
2022-07-29T22:16:25.142Z,17.10
2022-07-29T22:19:12.727Z,17.00
2022-07-29T22:22:00.195Z,17.00
2022-07-29T22:24:49.201Z,17.00
2022-07-29T22:27:36.981Z,17.10
2022-07-29T22:30:24.387Z,17.10
2022-07-29T22:33:17.587Z,17.10
2022-07-29T22:36:05.580Z,17.10
2022-07-29T22:38:52.869Z,17.00
2022-07-29T22:41:42.182Z,17.00
2022-07-29T22:44:29.829Z,17.00
2022-07-29T22:47:17.354Z,16.90
2022-07-29T22:50:04.848Z,16.90
2022-07-29T22:52:52.136Z,16.90
2022-07-29T22:55:39.689Z,16.80
2022-07-29T22:58:28.704Z,16.80
2022-07-29T23:01:16.416Z,16.80
2022-07-29T23:04:23.847Z,16.70
2022-07-29T23:07:11.317Z,16.70
2022-07-29T23:09:58.875Z,16.70
2022-07-29T23:12:46.108Z,16.60
2022-07-29T23:15:35.225Z,16.60
2022-07-29T23:18:22.618Z,16.50
2022-07-29T23:21:10.351Z,16.50
2022-07-29T23:23:57.950Z,16.40
2022-07-29T23:26:45.313Z,16.40
2022-07-29T23:29:36.775Z,16.40
2022-07-29T23:32:25.989Z,16.30
2022-07-29T23:35:13.147Z,16.30
2022-07-29T23:38:00.681Z,16.30
2022-07-29T23:40:48.493Z,16.20
2022-07-29T23:43:35.977Z,16.20
2022-07-29T23:46:24.049Z,16.10
2022-07-29T23:49:13.729Z,16.10
2022-07-29T23:52:01.457Z,16.10
2022-07-29T23:54:48.857Z,16.10
2022-07-29T23:57:36.329Z,16.10
